createdAt,value
2019-03-16T00:01:37.147Z,97307.95
2019-03-16T00:05:42.023Z,97309.86
2019-03-16T00:09:46.922Z,97315.98
2019-03-16T00:13:51.815Z,97322.21
2019-03-16T00:17:56.724Z,97332.36
2019-03-16T00:22:01.613Z,97329.28
2019-03-16T00:26:06.498Z,97325.70
2019-03-16T00:30:13.906Z,97325.30
2019-03-16T00:34:18.791Z,97333.41
2019-03-16T00:38:23.742Z,97348.16
2019-03-16T00:42:28.575Z,97338.48
2019-03-16T00:46:33.459Z,97334.69
2019-03-16T00:50:38.357Z,97322.33
2019-03-16T00:54:43.235Z,97336.45
2019-03-16T00:58:48.131Z,97338.88
2019-03-16T01:02:53.014Z,97331.58
2019-03-16T01:06:57.892Z,97331.04
2019-03-16T01:11:02.782Z,97338.61
2019-03-16T01:15:12.292Z,97337.02
2019-03-16T01:19:17.260Z,97344.66
2019-03-16T01:23:22.167Z,97362.34
2019-03-16T01:27:27.047Z,97359.48
2019-03-16T01:31:31.938Z,97362.38
2019-03-16T01:35:36.831Z,97364.90
2019-03-16T01:39:41.725Z,97364.24
2019-03-16T01:43:46.611Z,97368.61
2019-03-16T01:47:51.486Z,97361.89
2019-03-16T01:51:56.381Z,97359.62
2019-03-16T01:56:01.264Z,97371.68
2019-03-16T02:00:14.331Z,97373.38
2019-03-16T02:04:19.201Z,97362.80
2019-03-16T02:08:24.073Z,97363.78
2019-03-16T02:12:28.962Z,97363.78
2019-03-16T02:16:33.851Z,97372.38
2019-03-16T02:20:38.740Z,97371.02
2019-03-16T02:24:43.639Z,97374.48
2019-03-16T02:28:48.524Z,97366.05
2019-03-16T02:32:53.421Z,97370.87
2019-03-16T02:36:58.309Z,97381.56
2019-03-16T02:41:03.221Z,97380.66
2019-03-16T02:45:09.641Z,97391.61
2019-03-16T02:49:14.525Z,97387.48
2019-03-16T02:53:19.411Z,97386.77
2019-03-16T02:57:24.308Z,97392.86
2019-03-16T03:01:29.189Z,97387.13
2019-03-16T03:05:34.084Z,97387.14
2019-03-16T03:09:38.955Z,97388.95
2019-03-16T03:13:43.841Z,97393.87
2019-03-16T03:17:48.752Z,97383.82
2019-03-16T03:21:53.615Z,97388.09
2019-03-16T03:25:58.511Z,97377.67
2019-03-16T03:30:04.477Z,97379.45
2019-03-16T03:34:09.363Z,97380.01
2019-03-16T03:38:14.251Z,97378.39
2019-03-16T03:42:19.151Z,97377.80
2019-03-16T03:46:24.036Z,97387.20
2019-03-16T03:50:28.937Z,97394.06
2019-03-16T03:54:33.840Z,97382.17
2019-03-16T03:58:38.722Z,97383.98
2019-03-16T04:02:43.624Z,97387.20
2019-03-16T04:06:48.499Z,97384.78
2019-03-16T04:10:53.376Z,97386.55
2019-03-16T04:14:58.260Z,97391.86
2019-03-16T04:19:03.148Z,97393.53
2019-03-16T04:23:08.043Z,97406.67
2019-03-16T04:27:16.200Z,97413.72
2019-03-16T04:31:19.617Z,97424.56
2019-03-16T04:35:24.501Z,97422.80
2019-03-16T04:39:29.388Z,97433.19
2019-03-16T04:43:34.278Z,97432.39
2019-03-16T04:47:39.173Z,97437.56
2019-03-16T04:51:44.066Z,97433.45
2019-03-16T04:55:48.945Z,97423.66
2019-03-16T04:59:53.855Z,97421.80
2019-03-16T05:03:58.751Z,97427.48
2019-03-16T05:08:03.647Z,97425.27
2019-03-16T05:12:08.531Z,97433.41
2019-03-16T05:16:13.408Z,97429.38
2019-03-16T05:20:18.300Z,97428.13
2019-03-16T05:24:23.187Z,97431.34
2019-03-16T05:28:28.077Z,97423.25
2019-03-16T05:32:32.970Z,97411.50
2019-03-16T05:36:37.855Z,97416.72
2019-03-16T05:40:42.744Z,97412.15
2019-03-16T05:44:47.641Z,97415.61
2019-03-16T05:48:52.535Z,97415.07
2019-03-16T05:52:57.431Z,97419.90
2019-03-16T05:57:02.312Z,97431.45
2019-03-16T06:01:07.202Z,97430.48
2019-03-16T06:05:12.431Z,97436.02
2019-03-16T06:09:17.424Z,97436.82
2019-03-16T06:13:22.294Z,97437.02
2019-03-16T06:17:27.188Z,97419.49
2019-03-16T06:21:32.074Z,97417.73
2019-03-16T06:25:36.973Z,97430.03
2019-03-16T06:29:41.869Z,97425.17
2019-03-16T06:33:46.758Z,97420.48
2019-03-16T06:37:51.646Z,97404.14
2019-03-16T06:41:56.542Z,97408.53
2019-03-16T06:46:01.436Z,97413.13
2019-03-16T06:50:14.656Z,97415.23
2019-03-16T06:54:19.543Z,97412.58
2019-03-16T06:58:24.442Z,97408.22
2019-03-16T07:02:30.323Z,97420.51
2019-03-16T07:06:35.216Z,97419.83
2019-03-16T07:10:41.190Z,97421.61
2019-03-16T07:14:46.163Z,97424.24
2019-03-16T07:18:58.645Z,97420.48
2019-03-16T07:22:57.719Z,97419.81
2019-03-16T07:27:02.623Z,97425.45
2019-03-16T07:31:07.515Z,97410.82
2019-03-16T07:35:12.416Z,97416.52
2019-03-16T07:39:17.301Z,97413.67
2019-03-16T07:43:22.202Z,97413.30
2019-03-16T07:47:27.098Z,97413.89
2019-03-16T07:51:32.002Z,97416.13
2019-03-16T07:55:36.909Z,97425.93
2019-03-16T07:59:41.798Z,97416.64
2019-03-16T08:03:46.691Z,97417.48
2019-03-16T08:07:51.585Z,97421.70
2019-03-16T08:11:56.835Z,97432.98
2019-03-16T08:16:01.733Z,97432.80
2019-03-16T08:20:08.391Z,97439.63
2019-03-16T08:24:13.284Z,97438.01
2019-03-16T08:28:18.188Z,97427.16
2019-03-16T08:32:25.415Z,97434.06
2019-03-16T08:36:30.450Z,97440.30
2019-03-16T08:40:35.344Z,97442.63
2019-03-16T08:44:41.063Z,97433.73
2019-03-16T08:48:45.963Z,97425.88
2019-03-16T08:52:53.592Z,97419.93
2019-03-16T08:56:57.457Z,97431.27
2019-03-16T09:01:03.899Z,97425.32
2019-03-16T09:05:08.863Z,97435.14
2019-03-16T09:09:13.757Z,97434.14
2019-03-16T09:13:18.651Z,97443.85
2019-03-16T09:17:23.551Z,97441.72
2019-03-16T09:21:28.456Z,97442.81
2019-03-16T09:25:33.352Z,97443.52
2019-03-16T09:29:38.257Z,97452.86
2019-03-16T09:33:43.151Z,97462.33
2019-03-16T09:37:48.054Z,97454.70
2019-03-16T09:41:52.954Z,97466.89
2019-03-16T09:45:58.925Z,97461.19
2019-03-16T09:50:07.667Z,97466.81
2019-03-16T09:54:12.559Z,97472.81
2019-03-16T09:58:17.454Z,97467.33
2019-03-16T10:02:22.363Z,97469.42
2019-03-16T10:06:27.251Z,97462.87
2019-03-16T10:10:32.152Z,97458.06
2019-03-16T10:14:37.448Z,97453.88
2019-03-16T10:18:42.351Z,97447.05
2019-03-16T10:22:48.839Z,97440.00
2019-03-16T10:26:53.734Z,97429.41
2019-03-16T10:30:58.632Z,97423.97
2019-03-16T10:35:03.590Z,97419.53
2019-03-16T10:39:09.567Z,97423.10
2019-03-16T10:43:14.475Z,97427.37
2019-03-16T10:47:19.378Z,97424.58
2019-03-16T10:51:24.275Z,97420.92
2019-03-16T10:55:29.188Z,97415.27
2019-03-16T10:59:34.092Z,97430.48
2019-03-16T11:03:39.735Z,97426.79
2019-03-16T11:07:44.758Z,97429.36
2019-03-16T11:11:49.656Z,97432.02
2019-03-16T11:15:54.559Z,97433.97
2019-03-16T11:19:59.459Z,97428.05
2019-03-16T11:24:04.840Z,97439.80
2019-03-16T11:28:09.730Z,97432.44
2019-03-16T11:32:14.633Z,97441.15
2019-03-16T11:36:19.531Z,97437.76
2019-03-16T11:40:24.443Z,97443.19
2019-03-16T11:44:29.338Z,97431.23
2019-03-16T11:48:34.233Z,97418.45
2019-03-16T11:52:39.133Z,97431.69
2019-03-16T11:56:44.024Z,97430.66
2019-03-16T12:00:48.935Z,97407.95
2019-03-16T12:04:53.821Z,97411.69
2019-03-16T12:08:58.717Z,97394.06
2019-03-16T12:13:16.423Z,97388.98
2019-03-16T12:17:10.239Z,97380.83
2019-03-16T12:21:15.136Z,97380.98
2019-03-16T12:25:20.030Z,97385.34
2019-03-16T12:29:33.507Z,97401.61
2019-03-16T12:33:31.531Z,97387.76
2019-03-16T12:37:36.421Z,97366.02
2019-03-16T12:41:41.323Z,97360.84
2019-03-16T12:45:46.212Z,97356.98
2019-03-16T12:49:51.112Z,97370.87
2019-03-16T12:53:56.016Z,97370.30
2019-03-16T12:58:00.918Z,97356.05
2019-03-16T13:02:05.818Z,97353.69
2019-03-16T13:06:10.702Z,97346.47
2019-03-16T13:10:16.939Z,97344.27
2019-03-16T13:14:21.838Z,97341.13
2019-03-16T13:18:26.741Z,97331.11
2019-03-16T13:22:31.631Z,97330.69
2019-03-16T13:26:36.524Z,97336.95
2019-03-16T13:30:41.429Z,97319.99
2019-03-16T13:34:46.330Z,97319.64
2019-03-16T13:38:51.221Z,97326.02
2019-03-16T13:42:56.115Z,97313.42
2019-03-16T13:47:00.998Z,97316.98
2019-03-16T13:51:05.896Z,97308.20
2019-03-16T13:55:11.232Z,97308.80
2019-03-16T13:59:16.127Z,97321.59
2019-03-16T14:03:21.319Z,97320.97
2019-03-16T14:07:26.206Z,97341.30
2019-03-16T14:11:31.105Z,97338.43
2019-03-16T14:15:36.008Z,97331.41
2019-03-16T14:19:40.913Z,97325.49
2019-03-16T14:23:45.804Z,97327.94
2019-03-16T14:27:50.696Z,97317.23
2019-03-16T14:31:55.596Z,97324.50
2019-03-16T14:36:00.535Z,97321.42
2019-03-16T14:40:12.380Z,97324.75
2019-03-16T14:44:15.918Z,97325.11
2019-03-16T14:48:20.819Z,97314.41
2019-03-16T14:52:25.714Z,97298.22
2019-03-16T14:56:30.624Z,97300.80
2019-03-16T15:00:38.817Z,97296.02
2019-03-16T15:04:42.126Z,97300.03
2019-03-16T15:08:47.007Z,97285.27
2019-03-16T15:12:51.910Z,97286.85
2019-03-16T15:16:56.809Z,97283.81
2019-03-16T15:21:01.703Z,97282.00
2019-03-16T15:25:11.158Z,97277.50
2019-03-16T15:29:15.344Z,97272.72
2019-03-16T15:33:20.271Z,97274.73
2019-03-16T15:37:25.143Z,97265.84
2019-03-16T15:41:30.041Z,97247.47
2019-03-16T15:45:35.056Z,97240.06
2019-03-16T15:49:39.891Z,97246.88
2019-03-16T15:53:44.792Z,97244.98
2019-03-16T15:57:49.697Z,97240.09
2019-03-16T16:01:54.598Z,97242.25
2019-03-16T16:05:59.504Z,97234.05
2019-03-16T16:10:07.236Z,97238.22
2019-03-16T16:14:12.159Z,97229.19
2019-03-16T16:18:17.061Z,97233.72
2019-03-16T16:22:21.958Z,97238.38
2019-03-16T16:26:26.858Z,97214.39
2019-03-16T16:30:31.745Z,97223.67
2019-03-16T16:34:36.642Z,97217.38
2019-03-16T16:38:41.541Z,97209.77
2019-03-16T16:42:46.509Z,97205.78
2019-03-16T16:46:51.414Z,97215.59
2019-03-16T16:50:56.294Z,97199.66
2019-03-16T16:55:01.212Z,97201.89
2019-03-16T16:59:06.085Z,97198.42
2019-03-16T17:03:10.991Z,97200.09
2019-03-16T17:07:15.888Z,97193.55
2019-03-16T17:11:20.776Z,97188.34
2019-03-16T17:15:25.675Z,97195.30
2019-03-16T17:19:30.567Z,97190.55
2019-03-16T17:23:35.468Z,97197.14
2019-03-16T17:27:41.428Z,97199.26
2019-03-16T17:31:46.330Z,97192.11
2019-03-16T17:35:51.219Z,97186.66
2019-03-16T17:39:56.125Z,97196.35
2019-03-16T17:44:01.026Z,97187.96
2019-03-16T17:48:05.968Z,97187.07
2019-03-16T17:52:10.809Z,97177.86
2019-03-16T17:56:15.714Z,97186.31
2019-03-16T18:00:20.879Z,97178.24
2019-03-16T18:04:27.857Z,97172.50
2019-03-16T18:08:32.383Z,97160.19
2019-03-16T18:12:37.285Z,97165.30
2019-03-16T18:16:42.180Z,97155.53
2019-03-16T18:20:47.076Z,97143.86
2019-03-16T18:24:51.976Z,97145.97
2019-03-16T18:28:56.874Z,97144.34
2019-03-16T18:33:01.795Z,97139.90
2019-03-16T18:37:06.690Z,97136.52
2019-03-16T18:41:11.577Z,97136.91
2019-03-16T18:45:22.034Z,97122.77
2019-03-16T18:49:26.927Z,97120.16
2019-03-16T18:53:31.815Z,97113.92
2019-03-16T18:57:36.724Z,97110.52
2019-03-16T19:01:41.616Z,97118.13
2019-03-16T19:05:49.357Z,97119.83
2019-03-16T19:09:53.720Z,97117.38
2019-03-16T19:13:58.678Z,97114.05
2019-03-16T19:18:03.570Z,97122.95
2019-03-16T19:22:11.414Z,97117.73
2019-03-16T19:26:15.057Z,97113.68
2019-03-16T19:30:21.019Z,97103.37
2019-03-16T19:34:25.903Z,97098.53
2019-03-16T19:38:30.801Z,97090.24
2019-03-16T19:42:35.682Z,97090.41
2019-03-16T19:46:40.572Z,97086.48
2019-03-16T19:50:45.453Z,97087.30
2019-03-16T19:54:50.341Z,97080.23
2019-03-16T19:59:00.565Z,97071.72
2019-03-16T20:03:01.821Z,97068.25
2019-03-16T20:07:18.436Z,97065.41
2019-03-16T20:11:13.302Z,97062.40
2019-03-16T20:15:18.183Z,97068.60
2019-03-16T20:19:23.081Z,97061.84
2019-03-16T20:23:27.962Z,97061.17
2019-03-16T20:27:32.855Z,97058.95
2019-03-16T20:31:46.748Z,97041.75
2019-03-16T20:35:44.323Z,97037.73
2019-03-16T20:39:49.226Z,97021.59
2019-03-16T20:43:54.134Z,97020.06
2019-03-16T20:47:58.998Z,97009.38
2019-03-16T20:52:03.891Z,97016.43
2019-03-16T20:56:08.772Z,97016.66
2019-03-16T21:00:17.811Z,97021.41
2019-03-16T21:04:22.710Z,97023.38
2019-03-16T21:08:27.601Z,97010.04
2019-03-16T21:12:32.501Z,97010.99
2019-03-16T21:16:37.382Z,96997.31
2019-03-16T21:20:42.278Z,96995.27
2019-03-16T21:24:47.170Z,96995.78
2019-03-16T21:28:52.076Z,96986.02
2019-03-16T21:32:56.970Z,96971.98
2019-03-16T21:37:01.875Z,96960.34
2019-03-16T21:41:06.749Z,96967.41
2019-03-16T21:45:12.882Z,96972.50
2019-03-16T21:49:17.769Z,96959.69
2019-03-16T21:53:23.729Z,96956.32
2019-03-16T21:57:28.784Z,96950.69
2019-03-16T22:01:33.776Z,96951.90
2019-03-16T22:05:38.674Z,96950.47
2019-03-16T22:09:43.571Z,96950.05
2019-03-16T22:13:48.461Z,96940.77
2019-03-16T22:17:53.370Z,96922.55
2019-03-16T22:21:58.312Z,96924.38
2019-03-16T22:26:03.205Z,96917.16
2019-03-16T22:30:10.615Z,96909.34
2019-03-16T22:34:15.491Z,96898.63
2019-03-16T22:38:20.368Z,96896.73
2019-03-16T22:42:25.264Z,96909.57
2019-03-16T22:46:30.157Z,96900.36
2019-03-16T22:50:35.047Z,96898.11
2019-03-16T22:54:39.947Z,96902.59
2019-03-16T22:58:44.829Z,96891.16
2019-03-16T23:02:49.798Z,96890.17
2019-03-16T23:06:54.622Z,96885.81
2019-03-16T23:10:59.512Z,96874.94
2019-03-16T23:15:06.518Z,96874.99
2019-03-16T23:19:11.389Z,96876.30
2019-03-16T23:23:16.284Z,96868.22
2019-03-16T23:27:21.162Z,96858.70
2019-03-16T23:31:26.056Z,96857.38
2019-03-16T23:35:30.943Z,96850.98
2019-03-16T23:39:35.894Z,96843.78
2019-03-16T23:43:40.792Z,96842.52
2019-03-16T23:47:45.681Z,96839.86
2019-03-16T23:51:50.575Z,96837.36
2019-03-16T23:55:55.463Z,96835.37
